sensor_id;sensor_type;location;lat;lon;timestamp;temperature;humidity
30308;DHT22;17114;52.314;8.910;2022-08-03T00:01:35;19.30;99.90
30308;DHT22;17114;52.314;8.910;2022-08-03T00:04:03;19.20;99.90
30308;DHT22;17114;52.314;8.910;2022-08-03T00:06:30;19.20;99.90
30308;DHT22;17114;52.314;8.910;2022-08-03T00:09:03;19.20;99.90
30308;DHT22;17114;52.314;8.910;2022-08-03T00:11:31;19.20;99.90
30308;DHT22;17114;52.314;8.910;2022-08-03T00:13:58;19.10;99.90
30308;DHT22;17114;52.314;8.910;2022-08-03T00:16:25;19.10;99.90
30308;DHT22;17114;52.314;8.910;2022-08-03T00:18:52;19.10;99.90
30308;DHT22;17114;52.314;8.910;2022-08-03T00:21:19;19.10;99.90
30308;DHT22;17114;52.314;8.910;2022-08-03T00:23:46;19.10;99.90
30308;DHT22;17114;52.314;8.910;2022-08-03T00:26:21;19.10;99.90
30308;DHT22;17114;52.314;8.910;2022-08-03T00:28:50;19.10;99.90
30308;DHT22;17114;52.314;8.910;2022-08-03T00:31:17;19.10;99.90
30308;DHT22;17114;52.314;8.910;2022-08-03T00:34:04;19.20;99.90
30308;DHT22;17114;52.314;8.910;2022-08-03T00:36:32;19.20;99.90
30308;DHT22;17114;52.314;8.910;2022-08-03T00:38:59;19.30;99.90
30308;DHT22;17114;52.314;8.910;2022-08-03T00:41:26;19.30;99.90
30308;DHT22;17114;52.314;8.910;2022-08-03T00:43:53;19.40;99.90
30308;DHT22;17114;52.314;8.910;2022-08-03T00:46:20;19.40;99.90
30308;DHT22;17114;52.314;8.910;2022-08-03T00:48:48;19.50;99.90
30308;DHT22;17114;52.314;8.910;2022-08-03T00:51:16;19.40;99.90
30308;DHT22;17114;52.314;8.910;2022-08-03T00:53:44;19.40;99.90
30308;DHT22;17114;52.314;8.910;2022-08-03T00:56:15;19.50;99.90
30308;DHT22;17114;52.314;8.910;2022-08-03T00:58:43;19.40;99.90
30308;DHT22;17114;52.314;8.910;2022-08-03T01:01:11;19.50;99.90
30308;DHT22;17114;52.314;8.910;2022-08-03T01:03:38;19.50;99.90
30308;DHT22;17114;52.314;8.910;2022-08-03T01:11:23;19.50;99.90
30308;DHT22;17114;52.314;8.910;2022-08-03T01:17:01;19.60;99.90
30308;DHT22;17114;52.314;8.910;2022-08-03T01:19:45;19.50;99.90
30308;DHT22;17114;52.314;8.910;2022-08-03T01:30:15;19.60;99.90
30308;DHT22;17114;52.314;8.910;2022-08-03T01:33:14;19.60;99.90
30308;DHT22;17114;52.314;8.910;2022-08-03T01:36:04;19.60;99.90
30308;DHT22;17114;52.314;8.910;2022-08-03T01:38:35;19.60;99.90
30308;DHT22;17114;52.314;8.910;2022-08-03T01:41:09;19.60;99.90
30308;DHT22;17114;52.314;8.910;2022-08-03T01:43:39;19.60;99.90
30308;DHT22;17114;52.314;8.910;2022-08-03T01:46:38;19.60;99.90
30308;DHT22;17114;52.314;8.910;2022-08-03T01:49:17;19.70;99.90
30308;DHT22;17114;52.314;8.910;2022-08-03T01:51:46;19.80;99.90
30308;DHT22;17114;52.314;8.910;2022-08-03T01:54:31;19.80;99.90
30308;DHT22;17114;52.314;8.910;2022-08-03T01:56:58;19.80;99.90
30308;DHT22;17114;52.314;8.910;2022-08-03T01:59:26;19.80;99.90
30308;DHT22;17114;52.314;8.910;2022-08-03T02:01:55;19.90;99.90
30308;DHT22;17114;52.314;8.910;2022-08-03T02:04:44;19.90;99.90
30308;DHT22;17114;52.314;8.910;2022-08-03T02:07:14;20.00;99.90
30308;DHT22;17114;52.314;8.910;2022-08-03T02:09:44;20.00;99.90
30308;DHT22;17114;52.314;8.910;2022-08-03T02:12:13;20.00;99.90
30308;DHT22;17114;52.314;8.910;2022-08-03T02:14:43;20.00;99.90
30308;DHT22;17114;52.314;8.910;2022-08-03T02:17:11;20.00;99.90
30308;DHT22;17114;52.314;8.910;2022-08-03T02:19:41;20.00;99.90
30308;DHT22;17114;52.314;8.910;2022-08-03T02:22:10;20.00;99.90
30308;DHT22;17114;52.314;8.910;2022-08-03T02:24:38;20.00;99.90
30308;DHT22;17114;52.314;8.910;2022-08-03T02:27:12;20.00;99.90
30308;DHT22;17114;52.314;8.910;2022-08-03T02:29:43;20.00;99.90
30308;DHT22;17114;52.314;8.910;2022-08-03T02:32:15;20.00;99.90
30308;DHT22;17114;52.314;8.910;2022-08-03T02:34:47;20.00;99.90
30308;DHT22;17114;52.314;8.910;2022-08-03T02:37:18;19.90;99.90
30308;DHT22;17114;52.314;8.910;2022-08-03T02:39:46;19.90;99.90
30308;DHT22;17114;52.314;8.910;2022-08-03T02:42:14;19.80;99.90
30308;DHT22;17114;52.314;8.910;2022-08-03T02:44:44;19.80;99.90
30308;DHT22;17114;52.314;8.910;2022-08-03T02:47:14;19.80;99.90
30308;DHT22;17114;52.314;8.910;2022-08-03T02:49:43;19.80;99.90
30308;DHT22;17114;52.314;8.910;2022-08-03T02:52:21;19.80;99.90
30308;DHT22;17114;52.314;8.910;2022-08-03T02:54:52;19.70;99.90
30308;DHT22;17114;52.314;8.910;2022-08-03T02:57:21;19.60;99.90
30308;DHT22;17114;52.314;8.910;2022-08-03T02:59:50;19.60;99.90
30308;DHT22;17114;52.314;8.910;2022-08-03T03:02:18;19.50;99.90
30308;DHT22;17114;52.314;8.910;2022-08-03T03:04:46;19.50;99.90
30308;DHT22;17114;52.314;8.910;2022-08-03T03:07:36;19.50;99.90
30308;DHT22;17114;52.314;8.910;2022-08-03T03:10:22;19.40;99.90
30308;DHT22;17114;52.314;8.910;2022-08-03T03:12:51;19.30;99.90
30308;DHT22;17114;52.314;8.910;2022-08-03T03:15:18;19.30;99.90
30308;DHT22;17114;52.314;8.910;2022-08-03T03:17:49;19.20;99.90
30308;DHT22;17114;52.314;8.910;2022-08-03T03:20:17;19.20;99.90
30308;DHT22;17114;52.314;8.910;2022-08-03T03:22:58;19.20;99.90
30308;DHT22;17114;52.314;8.910;2022-08-03T03:25:27;19.10;99.90
30308;DHT22;17114;52.314;8.910;2022-08-03T03:27:56;19.10;99.90
30308;DHT22;17114;52.314;8.910;2022-08-03T03:30:24;19.10;99.90
30308;DHT22;17114;52.314;8.910;2022-08-03T03:32:52;19.20;99.90
30308;DHT22;17114;52.314;8.910;2022-08-03T03:35:19;19.20;99.90
30308;DHT22;17114;52.314;8.910;2022-08-03T03:37:46;19.20;99.90
30308;DHT22;17114;52.314;8.910;2022-08-03T03:40:13;19.20;99.90
30308;DHT22;17114;52.314;8.910;2022-08-03T03:42:40;19.30;99.90
30308;DHT22;17114;52.314;8.910;2022-08-03T03:45:08;19.30;99.90
30308;DHT22;17114;52.314;8.910;2022-08-03T03:47:35;19.30;99.90
30308;DHT22;17114;52.314;8.910;2022-08-03T03:50:04;19.20;99.90
30308;DHT22;17114;52.314;8.910;2022-08-03T03:52:32;19.20;99.90
30308;DHT22;17114;52.314;8.910;2022-08-03T03:54:59;19.20;99.90
30308;DHT22;17114;52.314;8.910;2022-08-03T03:57:27;19.20;99.90
30308;DHT22;17114;52.314;8.910;2022-08-03T03:59:55;19.10;99.90
30308;DHT22;17114;52.314;8.910;2022-08-03T04:02:22;19.10;99.90
30308;DHT22;17114;52.314;8.910;2022-08-03T04:04:49;19.10;99.90
30308;DHT22;17114;52.314;8.910;2022-08-03T04:08:23;19.10;99.90
30308;DHT22;17114;52.314;8.910;2022-08-03T04:16:21;19.20;99.90
30308;DHT22;17114;52.314;8.910;2022-08-03T04:18:53;19.30;99.90
30308;DHT22;17114;52.314;8.910;2022-08-03T04:21:21;19.40;99.90
30308;DHT22;17114;52.314;8.910;2022-08-03T04:23:52;19.40;99.90
30308;DHT22;17114;52.314;8.910;2022-08-03T04:26:22;19.40;99.90
30308;DHT22;17114;52.314;8.910;2022-08-03T04:28:51;19.50;99.90
30308;DHT22;17114;52.314;8.910;2022-08-03T04:31:21;19.60;99.90
30308;DHT22;17114;52.314;8.910;2022-08-03T04:33:51;19.70;99.90
30308;DHT22;17114;52.314;8.910;2022-08-03T04:36:24;20.00;99.90
30308;DHT22;17114;52.314;8.910;2022-08-03T04:39:04;20.40;99.90
30308;DHT22;17114;52.314;8.910;2022-08-03T04:41:34;20.90;99.90
30308;DHT22;17114;52.314;8.910;2022-08-03T04:44:23;21.40;99.90
30308;DHT22;17114;52.314;8.910;2022-08-03T04:46:55;21.90;99.90
30308;DHT22;17114;52.314;8.910;2022-08-03T04:49:23;22.30;99.90
30308;DHT22;17114;52.314;8.910;2022-08-03T04:51:51;22.70;99.90
30308;DHT22;17114;52.314;8.910;2022-08-03T04:54:18;23.10;99.90
30308;DHT22;17114;52.314;8.910;2022-08-03T04:56:45;23.40;99.90
30308;DHT22;17114;52.314;8.910;2022-08-03T04:59:12;23.70;99.90
30308;DHT22;17114;52.314;8.910;2022-08-03T05:01:40;23.90;99.90
30308;DHT22;17114;52.314;8.910;2022-08-03T05:04:08;24.20;99.90
30308;DHT22;17114;52.314;8.910;2022-08-03T05:06:35;24.30;99.90
30308;DHT22;17114;52.314;8.910;2022-08-03T05:09:10;24.70;99.90
30308;DHT22;17114;52.314;8.910;2022-08-03T05:11:40;25.00;99.90
30308;DHT22;17114;52.314;8.910;2022-08-03T05:14:07;25.30;99.90
30308;DHT22;17114;52.314;8.910;2022-08-03T05:16:34;25.50;99.90
30308;DHT22;17114;52.314;8.910;2022-08-03T05:19:12;25.60;99.90
30308;DHT22;17114;52.314;8.910;2022-08-03T05:21:39;25.50;99.90
30308;DHT22;17114;52.314;8.910;2022-08-03T05:24:17;25.50;99.90
30308;DHT22;17114;52.314;8.910;2022-08-03T05:26:55;25.70;99.90
30308;DHT22;17114;52.314;8.910;2022-08-03T05:29:24;25.60;99.90
30308;DHT22;17114;52.314;8.910;2022-08-03T05:31:54;25.90;99.90
30308;DHT22;17114;52.314;8.910;2022-08-03T05:34:21;26.10;99.90
30308;DHT22;17114;52.314;8.910;2022-08-03T05:36:48;26.40;99.90
30308;DHT22;17114;52.314;8.910;2022-08-03T05:39:15;26.70;99.90
30308;DHT22;17114;52.314;8.910;2022-08-03T05:41:42;27.00;99.90
30308;DHT22;17114;52.314;8.910;2022-08-03T05:44:09;27.20;99.90
30308;DHT22;17114;52.314;8.910;2022-08-03T05:46:38;27.20;99.90
30308;DHT22;17114;52.314;8.910;2022-08-03T05:49:05;27.30;99.90
30308;DHT22;17114;52.314;8.910;2022-08-03T05:51:33;27.60;99.90
30308;DHT22;17114;52.314;8.910;2022-08-03T05:54:00;27.60;99.90
30308;DHT22;17114;52.314;8.910;2022-08-03T05:56:27;27.80;99.90
30308;DHT22;17114;52.314;8.910;2022-08-03T05:58:57;28.00;99.90
30308;DHT22;17114;52.314;8.910;2022-08-03T06:01:42;28.10;99.90
30308;DHT22;17114;52.314;8.910;2022-08-03T06:04:09;28.20;99.90
30308;DHT22;17114;52.314;8.910;2022-08-03T06:06:36;28.30;99.90
30308;DHT22;17114;52.314;8.910;2022-08-03T06:09:03;28.20;99.90
30308;DHT22;17114;52.314;8.910;2022-08-03T06:11:34;28.20;99.90
30308;DHT22;17114;52.314;8.910;2022-08-03T06:14:01;28.30;99.90
30308;DHT22;17114;52.314;8.910;2022-08-03T06:16:28;28.30;99.90
30308;DHT22;17114;52.314;8.910;2022-08-03T06:18:55;28.30;99.90
30308;DHT22;17114;52.314;8.910;2022-08-03T06:21:22;28.40;99.90
30308;DHT22;17114;52.314;8.910;2022-08-03T06:23:52;28.70;99.90
30308;DHT22;17114;52.314;8.910;2022-08-03T06:26:23;28.80;99.90
30308;DHT22;17114;52.314;8.910;2022-08-03T06:28:49;28.70;99.90
30308;DHT22;17114;52.314;8.910;2022-08-03T06:31:21;28.60;99.90
30308;DHT22;17114;52.314;8.910;2022-08-03T06:33:49;28.30;99.90
30308;DHT22;17114;52.314;8.910;2022-08-03T06:36:36;28.20;99.90
30308;DHT22;17114;52.314;8.910;2022-08-03T06:39:03;28.10;99.90
30308;DHT22;17114;52.314;8.910;2022-08-03T06:41:30;28.30;99.90
30308;DHT22;17114;52.314;8.910;2022-08-03T06:44:04;28.40;99.90
30308;DHT22;17114;52.314;8.910;2022-08-03T06:46:31;28.90;99.90
30308;DHT22;17114;52.314;8.910;2022-08-03T06:48:57;29.30;99.90
30308;DHT22;17114;52.314;8.910;2022-08-03T06:51:24;29.60;99.90
30308;DHT22;17114;52.314;8.910;2022-08-03T06:54:11;29.90;99.90
30308;DHT22;17114;52.314;8.910;2022-08-03T06:56:39;29.90;99.90
30308;DHT22;17114;52.314;8.910;2022-08-03T06:59:06;29.90;99.90
30308;DHT22;17114;52.314;8.910;2022-08-03T07:01:33;29.80;99.90
30308;DHT22;17114;52.314;8.910;2022-08-03T07:04:00;30.00;99.90
30308;DHT22;17114;52.314;8.910;2022-08-03T07:06:27;30.40;99.90
30308;DHT22;17114;52.314;8.910;2022-08-03T07:08:54;30.70;99.90
30308;DHT22;17114;52.314;8.910;2022-08-03T07:11:25;30.70;99.90
30308;DHT22;17114;52.314;8.910;2022-08-03T07:13:54;30.80;99.90
30308;DHT22;17114;52.314;8.910;2022-08-03T07:16:22;31.20;99.90
30308;DHT22;17114;52.314;8.910;2022-08-03T07:18:49;31.60;99.90
30308;DHT22;17114;52.314;8.910;2022-08-03T07:21:17;31.70;99.90
30308;DHT22;17114;52.314;8.910;2022-08-03T07:23:47;31.80;99.90
30308;DHT22;17114;52.314;8.910;2022-08-03T07:26:13;31.70;99.90
30308;DHT22;17114;52.314;8.910;2022-08-03T07:28:40;31.70;99.90
30308;DHT22;17114;52.314;8.910;2022-08-03T07:31:07;31.60;99.90
30308;DHT22;17114;52.314;8.910;2022-08-03T07:33:34;31.20;99.90
30308;DHT22;17114;52.314;8.910;2022-08-03T07:36:01;30.90;99.90
30308;DHT22;17114;52.314;8.910;2022-08-03T07:38:28;30.90;99.90
30308;DHT22;17114;52.314;8.910;2022-08-03T07:40:55;30.60;99.90
30308;DHT22;17114;52.314;8.910;2022-08-03T07:43:22;30.20;99.90
30308;DHT22;17114;52.314;8.910;2022-08-03T07:45:49;30.10;99.90
30308;DHT22;17114;52.314;8.910;2022-08-03T07:48:16;30.20;99.90
30308;DHT22;17114;52.314;8.910;2022-08-03T07:50:43;30.40;99.90
30308;DHT22;17114;52.314;8.910;2022-08-03T07:53:10;30.60;99.90
30308;DHT22;17114;52.314;8.910;2022-08-03T07:55:37;30.80;99.90
30308;DHT22;17114;52.314;8.910;2022-08-03T07:58:09;30.90;99.90
30308;DHT22;17114;52.314;8.910;2022-08-03T08:00:49;31.00;99.90
30308;DHT22;17114;52.314;8.910;2022-08-03T08:03:18;31.30;99.90
30308;DHT22;17114;52.314;8.910;2022-08-03T08:05:48;31.60;99.90
30308;DHT22;17114;52.314;8.910;2022-08-03T08:08:15;31.70;99.90
30308;DHT22;17114;52.314;8.910;2022-08-03T08:10:42;31.70;99.90
30308;DHT22;17114;52.314;8.910;2022-08-03T08:13:24;31.60;99.90
30308;DHT22;17114;52.314;8.910;2022-08-03T08:15:51;31.70;99.90
30308;DHT22;17114;52.314;8.910;2022-08-03T08:18:18;31.60;99.90
30308;DHT22;17114;52.314;8.910;2022-08-03T08:20:45;31.70;99.90
30308;DHT22;17114;52.314;8.910;2022-08-03T08:23:12;31.70;99.90
30308;DHT22;17114;52.314;8.910;2022-08-03T08:25:59;31.70;99.90
30308;DHT22;17114;52.314;8.910;2022-08-03T08:28:25;31.90;99.90
30308;DHT22;17114;52.314;8.910;2022-08-03T08:30:59;31.80;99.90
30308;DHT22;17114;52.314;8.910;2022-08-03T08:33:26;32.00;99.90
30308;DHT22;17114;52.314;8.910;2022-08-03T08:36:08;32.10;99.90
30308;DHT22;17114;52.314;8.910;2022-08-03T08:38:40;32.40;99.90
30308;DHT22;17114;52.314;8.910;2022-08-03T08:41:09;32.70;99.90
30308;DHT22;17114;52.314;8.910;2022-08-03T08:43:37;32.80;99.90
30308;DHT22;17114;52.314;8.910;2022-08-03T08:46:04;32.90;99.90
30308;DHT22;17114;52.314;8.910;2022-08-03T08:48:36;32.70;99.90
30308;DHT22;17114;52.314;8.910;2022-08-03T08:51:06;33.00;99.90
30308;DHT22;17114;52.314;8.910;2022-08-03T08:53:36;33.20;99.90
30308;DHT22;17114;52.314;8.910;2022-08-03T08:56:04;33.30;99.90
30308;DHT22;17114;52.314;8.910;2022-08-03T08:58:37;33.50;99.90
30308;DHT22;17114;52.314;8.910;2022-08-03T09:01:07;33.60;99.90
30308;DHT22;17114;52.314;8.910;2022-08-03T09:03:34;33.50;99.90
30308;DHT22;17114;52.314;8.910;2022-08-03T09:06:02;33.20;99.90
30308;DHT22;17114;52.314;8.910;2022-08-03T09:08:31;33.30;99.90
30308;DHT22;17114;52.314;8.910;2022-08-03T09:10:58;33.40;99.90
30308;DHT22;17114;52.314;8.910;2022-08-03T09:13:26;32.90;99.90
30308;DHT22;17114;52.314;8.910;2022-08-03T09:16:18;32.70;99.90
30308;DHT22;17114;52.314;8.910;2022-08-03T09:18:52;32.70;99.90
30308;DHT22;17114;52.314;8.910;2022-08-03T09:24:03;33.20;99.90
30308;DHT22;17114;52.314;8.910;2022-08-03T09:26:38;33.10;99.90
30308;DHT22;17114;52.314;8.910;2022-08-03T09:29:08;32.90;99.90
30308;DHT22;17114;52.314;8.910;2022-08-03T09:34:14;33.00;99.90
30308;DHT22;17114;52.314;8.910;2022-08-03T09:36:46;33.30;99.90
30308;DHT22;17114;52.314;8.910;2022-08-03T09:39:19;33.30;99.90
30308;DHT22;17114;52.314;8.910;2022-08-03T09:42:19;33.50;99.90
30308;DHT22;17114;52.314;8.910;2022-08-03T09:44:51;33.80;99.90
30308;DHT22;17114;52.314;8.910;2022-08-03T09:50:07;34.00;99.90
30308;DHT22;17114;52.314;8.910;2022-08-03T09:52:39;33.80;99.60
30308;DHT22;17114;52.314;8.910;2022-08-03T09:55:18;33.50;99.90
30308;DHT22;17114;52.314;8.910;2022-08-03T09:58:09;33.70;99.90
30308;DHT22;17114;52.314;8.910;2022-08-03T10:03:24;33.60;99.90
30308;DHT22;17114;52.314;8.910;2022-08-03T10:05:54;33.60;99.00
30308;DHT22;17114;52.314;8.910;2022-08-03T10:08:26;33.50;99.20
30308;DHT22;17114;52.314;8.910;2022-08-03T10:10:53;33.40;99.90
30308;DHT22;17114;52.314;8.910;2022-08-03T10:13:21;33.50;99.70
30308;DHT22;17114;52.314;8.910;2022-08-03T10:15:49;33.10;99.20
30308;DHT22;17114;52.314;8.910;2022-08-03T10:18:36;32.80;99.00
30308;DHT22;17114;52.314;8.910;2022-08-03T10:21:06;32.40;99.40
30308;DHT22;17114;52.314;8.910;2022-08-03T10:23:33;32.10;99.90
30308;DHT22;17114;52.314;8.910;2022-08-03T10:26:02;32.20;99.90
30308;DHT22;17114;52.314;8.910;2022-08-03T10:28:35;32.60;99.80
30308;DHT22;17114;52.314;8.910;2022-08-03T10:31:08;33.00;99.70
30308;DHT22;17114;52.314;8.910;2022-08-03T10:33:42;33.30;99.90
30308;DHT22;17114;52.314;8.910;2022-08-03T10:36:22;33.60;98.70
30308;DHT22;17114;52.314;8.910;2022-08-03T10:38:51;33.50;98.40
30308;DHT22;17114;52.314;8.910;2022-08-03T10:41:20;33.30;98.70
30308;DHT22;17114;52.314;8.910;2022-08-03T10:46:29;33.30;99.00
30308;DHT22;17114;52.314;8.910;2022-08-03T10:48:57;33.30;97.90
30308;DHT22;17114;52.314;8.910;2022-08-03T10:51:24;33.40;97.30
30308;DHT22;17114;52.314;8.910;2022-08-03T10:53:56;33.30;97.90
30308;DHT22;17114;52.314;8.910;2022-08-03T11:02:13;32.50;98.10
30308;DHT22;17114;52.314;8.910;2022-08-03T11:04:41;32.30;98.50
30308;DHT22;17114;52.314;8.910;2022-08-03T11:07:17;32.60;99.40
30308;DHT22;17114;52.314;8.910;2022-08-03T11:09:46;33.00;97.50
30308;DHT22;17114;52.314;8.910;2022-08-03T11:12:30;32.90;97.80
30308;DHT22;17114;52.314;8.910;2022-08-03T11:15:07;32.80;96.50
30308;DHT22;17114;52.314;8.910;2022-08-03T11:17:35;32.50;98.50
30308;DHT22;17114;52.314;8.910;2022-08-03T11:20:47;32.70;99.30
30308;DHT22;17114;52.314;8.910;2022-08-03T11:26:24;33.70;99.90
30308;DHT22;17114;52.314;8.910;2022-08-03T11:28:51;34.30;98.80
30308;DHT22;17114;52.314;8.910;2022-08-03T11:34:10;34.70;97.10
30308;DHT22;17114;52.314;8.910;2022-08-03T11:39:44;34.50;97.60
30308;DHT22;17114;52.314;8.910;2022-08-03T11:44:56;34.30;97.90
30308;DHT22;17114;52.314;8.910;2022-08-03T11:47:24;34.00;97.80
30308;DHT22;17114;52.314;8.910;2022-08-03T11:49:59;34.00;97.00
30308;DHT22;17114;52.314;8.910;2022-08-03T11:52:34;34.10;96.30
30308;DHT22;17114;52.314;8.910;2022-08-03T11:55:11;34.20;95.90
30308;DHT22;17114;52.314;8.910;2022-08-03T11:57:38;34.40;97.00
30308;DHT22;17114;52.314;8.910;2022-08-03T12:00:30;34.30;95.40
30308;DHT22;17114;52.314;8.910;2022-08-03T12:03:07;34.10;94.30
30308;DHT22;17114;52.314;8.910;2022-08-03T12:06:01;33.90;94.60
30308;DHT22;17114;52.314;8.910;2022-08-03T12:08:30;34.30;95.90
30308;DHT22;17114;52.314;8.910;2022-08-03T12:11:00;34.40;95.00
30308;DHT22;17114;52.314;8.910;2022-08-03T12:13:45;34.60;96.70
30308;DHT22;17114;52.314;8.910;2022-08-03T12:16:32;34.40;95.40
30308;DHT22;17114;52.314;8.910;2022-08-03T12:19:04;34.50;95.30
30308;DHT22;17114;52.314;8.910;2022-08-03T12:21:32;34.80;96.10
30308;DHT22;17114;52.314;8.910;2022-08-03T12:24:01;34.90;94.20
30308;DHT22;17114;52.314;8.910;2022-08-03T12:26:41;34.90;95.00
30308;DHT22;17114;52.314;8.910;2022-08-03T12:29:19;34.80;94.10
30308;DHT22;17114;52.314;8.910;2022-08-03T12:31:47;34.90;94.20
30308;DHT22;17114;52.314;8.910;2022-08-03T12:34:14;34.90;94.70
30308;DHT22;17114;52.314;8.910;2022-08-03T12:36:54;34.70;92.80
30308;DHT22;17114;52.314;8.910;2022-08-03T12:39:23;34.50;93.30
30308;DHT22;17114;52.314;8.910;2022-08-03T12:41:55;34.60;94.40
30308;DHT22;17114;52.314;8.910;2022-08-03T12:44:30;34.60;93.30
30308;DHT22;17114;52.314;8.910;2022-08-03T12:46:58;34.70;93.50
30308;DHT22;17114;52.314;8.910;2022-08-03T12:49:25;34.60;94.00
30308;DHT22;17114;52.314;8.910;2022-08-03T12:51:57;34.70;92.70
30308;DHT22;17114;52.314;8.910;2022-08-03T12:54:29;34.60;94.20
30308;DHT22;17114;52.314;8.910;2022-08-03T12:57:16;34.50;94.00
30308;DHT22;17114;52.314;8.910;2022-08-03T12:59:45;34.10;93.30
30308;DHT22;17114;52.314;8.910;2022-08-03T13:02:24;33.90;93.30
30308;DHT22;17114;52.314;8.910;2022-08-03T13:04:53;33.90;93.50
30308;DHT22;17114;52.314;8.910;2022-08-03T13:07:21;33.80;93.60
30308;DHT22;17114;52.314;8.910;2022-08-03T13:09:55;33.90;93.30
30308;DHT22;17114;52.314;8.910;2022-08-03T13:12:26;33.80;94.10
30308;DHT22;17114;52.314;8.910;2022-08-03T13:14:59;33.60;94.10
30308;DHT22;17114;52.314;8.910;2022-08-03T13:17:26;33.40;92.60
30308;DHT22;17114;52.314;8.910;2022-08-03T13:19:53;33.40;94.70
30308;DHT22;17114;52.314;8.910;2022-08-03T13:22:26;33.50;93.90
30308;DHT22;17114;52.314;8.910;2022-08-03T13:24:55;33.40;93.50
30308;DHT22;17114;52.314;8.910;2022-08-03T13:27:23;33.50;94.50
30308;DHT22;17114;52.314;8.910;2022-08-03T13:30:11;33.50;93.30
30308;DHT22;17114;52.314;8.910;2022-08-03T13:32:38;33.60;96.50
30308;DHT22;17114;52.314;8.910;2022-08-03T13:35:06;33.80;95.00
30308;DHT22;17114;52.314;8.910;2022-08-03T13:37:34;33.70;93.00
30308;DHT22;17114;52.314;8.910;2022-08-03T13:40:02;33.80;94.40
30308;DHT22;17114;52.314;8.910;2022-08-03T13:42:33;33.60;94.20
30308;DHT22;17114;52.314;8.910;2022-08-03T13:45:01;33.50;94.50
30308;DHT22;17114;52.314;8.910;2022-08-03T13:47:29;33.50;94.60
30308;DHT22;17114;52.314;8.910;2022-08-03T13:49:56;33.40;94.00
30308;DHT22;17114;52.314;8.910;2022-08-03T13:52:31;33.20;93.50
30308;DHT22;17114;52.314;8.910;2022-08-03T13:54:58;33.10;93.50
30308;DHT22;17114;52.314;8.910;2022-08-03T13:57:26;33.10;94.10
30308;DHT22;17114;52.314;8.910;2022-08-03T14:00:13;33.10;95.00
30308;DHT22;17114;52.314;8.910;2022-08-03T14:02:58;33.20;94.50
30308;DHT22;17114;52.314;8.910;2022-08-03T14:05:38;33.20;94.40
30308;DHT22;17114;52.314;8.910;2022-08-03T14:08:05;33.10;94.60
30308;DHT22;17114;52.314;8.910;2022-08-03T14:10:34;33.10;94.10
30308;DHT22;17114;52.314;8.910;2022-08-03T14:13:02;33.10;93.80
30308;DHT22;17114;52.314;8.910;2022-08-03T14:15:29;33.00;94.00
30308;DHT22;17114;52.314;8.910;2022-08-03T14:17:56;33.10;94.60
30308;DHT22;17114;52.314;8.910;2022-08-03T14:20:25;33.10;93.50
30308;DHT22;17114;52.314;8.910;2022-08-03T14:23:04;33.00;93.50
30308;DHT22;17114;52.314;8.910;2022-08-03T14:25:32;32.90;94.50
30308;DHT22;17114;52.314;8.910;2022-08-03T14:28:17;32.70;94.20
30308;DHT22;17114;52.314;8.910;2022-08-03T14:30:44;32.60;94.90
30308;DHT22;17114;52.314;8.910;2022-08-03T14:33:11;32.60;93.70
30308;DHT22;17114;52.314;8.910;2022-08-03T14:35:39;32.50;93.90
30308;DHT22;17114;52.314;8.910;2022-08-03T14:38:05;32.40;94.40
30308;DHT22;17114;52.314;8.910;2022-08-03T14:40:32;32.20;93.20
30308;DHT22;17114;52.314;8.910;2022-08-03T14:42:59;32.10;94.20
30308;DHT22;17114;52.314;8.910;2022-08-03T14:45:26;32.00;94.10
30308;DHT22;17114;52.314;8.910;2022-08-03T14:47:53;31.90;94.20
30308;DHT22;17114;52.314;8.910;2022-08-03T14:50:40;31.90;95.00
30308;DHT22;17114;52.314;8.910;2022-08-03T14:53:19;32.00;94.60
30308;DHT22;17114;52.314;8.910;2022-08-03T14:55:46;32.10;94.70
30308;DHT22;17114;52.314;8.910;2022-08-03T14:58:18;32.10;94.80
30308;DHT22;17114;52.314;8.910;2022-08-03T15:00:48;32.10;94.10
30308;DHT22;17114;52.314;8.910;2022-08-03T15:03:15;32.10;94.60
30308;DHT22;17114;52.314;8.910;2022-08-03T15:05:46;32.10;94.00
30308;DHT22;17114;52.314;8.910;2022-08-03T15:08:13;32.00;95.10
30308;DHT22;17114;52.314;8.910;2022-08-03T15:10:39;32.10;94.70
30308;DHT22;17114;52.314;8.910;2022-08-03T15:13:14;32.10;94.00
30308;DHT22;17114;52.314;8.910;2022-08-03T15:15:41;32.10;95.10
30308;DHT22;17114;52.314;8.910;2022-08-03T15:18:08;32.10;94.40
30308;DHT22;17114;52.314;8.910;2022-08-03T15:20:35;32.10;94.60
30308;DHT22;17114;52.314;8.910;2022-08-03T15:23:12;32.10;94.90
30308;DHT22;17114;52.314;8.910;2022-08-03T15:25:40;32.00;94.50
30308;DHT22;17114;52.314;8.910;2022-08-03T15:28:27;31.80;94.40
30308;DHT22;17114;52.314;8.910;2022-08-03T15:30:55;31.70;94.70
30308;DHT22;17114;52.314;8.910;2022-08-03T15:33:22;31.70;95.20
30308;DHT22;17114;52.314;8.910;2022-08-03T15:35:49;31.70;95.50
30308;DHT22;17114;52.314;8.910;2022-08-03T15:38:16;31.70;95.00
30308;DHT22;17114;52.314;8.910;2022-08-03T15:40:43;31.80;95.40
30308;DHT22;17114;52.314;8.910;2022-08-03T15:43:10;32.00;95.00
30308;DHT22;17114;52.314;8.910;2022-08-03T15:45:37;32.20;94.60
30308;DHT22;17114;52.314;8.910;2022-08-03T15:48:07;32.20;94.50
30308;DHT22;17114;52.314;8.910;2022-08-03T15:50:34;32.10;94.30
30308;DHT22;17114;52.314;8.910;2022-08-03T15:53:01;32.10;94.00
30308;DHT22;17114;52.314;8.910;2022-08-03T15:55:28;32.10;95.30
30308;DHT22;17114;52.314;8.910;2022-08-03T15:57:57;32.10;94.70
30308;DHT22;17114;52.314;8.910;2022-08-03T16:00:44;32.10;94.80
30308;DHT22;17114;52.314;8.910;2022-08-03T16:03:11;32.10;94.60
30308;DHT22;17114;52.314;8.910;2022-08-03T16:05:38;32.00;95.10
30308;DHT22;17114;52.314;8.910;2022-08-03T16:08:05;31.90;95.00
30308;DHT22;17114;52.314;8.910;2022-08-03T16:10:39;31.90;95.10
30308;DHT22;17114;52.314;8.910;2022-08-03T16:13:06;31.90;95.60
30308;DHT22;17114;52.314;8.910;2022-08-03T16:15:34;31.90;95.00
30308;DHT22;17114;52.314;8.910;2022-08-03T16:18:05;31.80;94.90
30308;DHT22;17114;52.314;8.910;2022-08-03T16:20:33;31.70;95.50
30308;DHT22;17114;52.314;8.910;2022-08-03T16:23:03;31.70;95.40
30308;DHT22;17114;52.314;8.910;2022-08-03T16:25:41;31.70;94.90
30308;DHT22;17114;52.314;8.910;2022-08-03T16:28:15;31.70;95.40
30308;DHT22;17114;52.314;8.910;2022-08-03T16:30:44;31.70;95.10
30308;DHT22;17114;52.314;8.910;2022-08-03T16:33:12;31.70;95.30
30308;DHT22;17114;52.314;8.910;2022-08-03T16:35:43;31.70;95.30
30308;DHT22;17114;52.314;8.910;2022-08-03T16:38:10;31.60;95.20
30308;DHT22;17114;52.314;8.910;2022-08-03T16:40:44;31.60;95.20
30308;DHT22;17114;52.314;8.910;2022-08-03T16:43:14;31.60;94.80
30308;DHT22;17114;52.314;8.910;2022-08-03T16:45:45;31.50;95.00
30308;DHT22;17114;52.314;8.910;2022-08-03T16:48:13;31.40;95.50